Pensacola Naval Air Station/Forrest Sherman field
KNPA : now visible

Airfield :











YOU CAN JOIN US ON...

 
LOGIN :

Register | Disclaimer

   EN    FR    IT 

 









Legend :    VFR   Marginal VFR   IFR   Intensive IFR   Very Intensive IFR
Visi :
Ceiling :
>= 8 km
>= 3000ft
5 to 8 km
1000 to 3000 ft
1500m to 5 km
500 to 1000 ft
800 to 1500m
200 to 500 ft
< 800m
< 200 ft
Symbols :   Thunderstorms  Fog  Heavy snow  Heavy precipitations  Wind > 20 kt






- Airport Elevation : 28 ft


KNPA - Pensacola Naval Air Station/Forrest Sherman field

CURRENT METAR :
  • 061356Z 05005KT 10SM FEW025 SCT032 BKN043 14/12 A3015 RMK SLP212 T01440117

EXPIRED METARs :
  • 061256Z 03004KT 10SM SCT038 BKN120 BKN250 13/11 A3015 RMK SLP210 T01280111
  • 061156Z 02003KT 10SM FEW035 BKN120 BKN250 11/11 A3014 RMK SLP208 FIRST T01110106 10117 20094 53009

TAF TAF KNPA
Valid from the 06 at 07:00 until the 07 at 07:00 UTC


0607/0707 VRB06KT 9999 FEW015 SCT140 BKN250 QNH3007INS
FM061400 20010KT 9999 SCT020 BKN120 QNH3010INS
FM061900 21012KT 9999 VCSH SCT020 BKN120 QNH3006INS
FM070000 23008KT 9999 SCT025 BKN100 QNH3004INS
TEMPO 0703/0707 BKN020 OVC060 AUTOMATED SENSOR METWATCH 0607 TIL 0610 T08/0608Z T21/0619Z FN00213



MET'MAP, your aeronautical weather chart ! - Copyright ORBIFLY December 2007 - Disclaimer

ORBIFLY MET'MAP TEAM :

Programming & Development : Alexandra Zaïnal
Concept & original design : Baudouin d'Aumeries
Assistance for programming : Marc-Olivier Méhu
Technical & hardware support : Manuel Goepfert

Contact : metmap@orbifly.com




SOURCES & CREDITS :

   NOAA       Earth
Advisory